createdAt,value
2022-11-06T00:00:54.607Z,99205.56
2022-11-06T00:06:12.096Z,99211.00
2022-11-06T00:11:19.267Z,99198.16
2022-11-06T00:16:26.840Z,99194.88
2022-11-06T00:21:33.587Z,99205.03
2022-11-06T00:26:38.925Z,99206.81
2022-11-06T00:32:07.508Z,99203.66
2022-11-06T00:37:13.633Z,99196.69
2022-11-06T00:42:19.221Z,99200.34
2022-11-06T00:47:30.812Z,99204.50
2022-11-06T00:52:36.940Z,99194.53
2022-11-06T00:57:42.827Z,99197.50
2022-11-06T01:02:50.516Z,99204.03
2022-11-06T01:07:55.653Z,99197.06
2022-11-06T01:13:00.481Z,99195.59
2022-11-06T01:18:07.998Z,99183.56
2022-11-06T01:23:12.924Z,99195.59
2022-11-06T01:28:21.054Z,99196.88
2022-11-06T01:33:28.570Z,99194.56
2022-11-06T01:38:33.443Z,99193.22
2022-11-06T01:43:50.344Z,99187.97
2022-11-06T01:49:03.764Z,99185.50
2022-11-06T01:54:11.163Z,99189.78
2022-11-06T01:59:19.747Z,99179.19
2022-11-06T02:04:29.985Z,99181.72
2022-11-06T02:09:37.156Z,99162.75
2022-11-06T02:14:48.454Z,99162.88
2022-11-06T02:20:07.837Z,99165.47
2022-11-06T02:25:19.825Z,99152.72
2022-11-06T02:30:27.395Z,99154.31
2022-11-06T02:35:37.440Z,99148.56
2022-11-06T02:40:46.588Z,99159.59
2022-11-06T02:45:59.170Z,99154.97
2022-11-06T02:51:07.163Z,99148.69
2022-11-06T02:56:16.214Z,99142.09
2022-11-06T03:01:29.936Z,99146.16
2022-11-06T03:06:39.006Z,99145.25
2022-11-06T03:11:44.392Z,99141.63
2022-11-06T03:16:59.155Z,99135.41
2022-11-06T03:22:07.041Z,99150.03
2022-11-06T03:27:19.021Z,99148.94
2022-11-06T03:32:31.439Z,99147.03
2022-11-06T03:37:45.852Z,99143.13
2022-11-06T03:42:54.715Z,99133.56
2022-11-06T03:48:06.820Z,99139.16
2022-11-06T03:53:15.597Z,99133.00
2022-11-06T03:58:24.726Z,99128.78
2022-11-06T04:03:37.631Z,99137.47
2022-11-06T04:08:56.226Z,99141.44
2022-11-06T04:14:06.411Z,99131.75
2022-11-06T04:19:17.935Z,99130.22
2022-11-06T04:24:46.463Z,99125.03
2022-11-06T04:30:13.730Z,99122.19
2022-11-06T04:35:25.710Z,99132.53
2022-11-06T04:40:38.302Z,99117.88
2022-11-06T04:45:46.165Z,99112.72
2022-11-06T04:50:57.362Z,99121.88
2022-11-06T04:56:09.265Z,99109.44
2022-11-06T05:01:14.356Z,99108.44
2022-11-06T05:06:23.528Z,99109.91
2022-11-06T05:11:32.116Z,99104.66
2022-11-06T05:16:37.199Z,99109.16
2022-11-06T05:21:57.133Z,99097.59
2022-11-06T05:27:02.014Z,99085.41
2022-11-06T05:32:07.227Z,99087.00
2022-11-06T05:37:15.523Z,99080.25
2022-11-06T05:42:21.614Z,99088.22
2022-11-06T05:47:27.374Z,99091.47
2022-11-06T05:52:34.953Z,99086.94
2022-11-06T05:57:39.805Z,99093.69
2022-11-06T06:02:44.865Z,99091.00
2022-11-06T06:07:52.362Z,99089.56
2022-11-06T06:12:57.295Z,99095.75
2022-11-06T06:18:02.371Z,99096.72
2022-11-06T06:23:10.052Z,99097.84
2022-11-06T06:28:15.503Z,99102.94
2022-11-06T06:33:21.821Z,99099.81
2022-11-06T06:38:29.195Z,99104.53
2022-11-06T06:43:36.696Z,99109.44
2022-11-06T06:48:42.733Z,99106.69
2022-11-06T06:53:52.147Z,99113.97
2022-11-06T06:58:58.504Z,99123.38
2022-11-06T07:04:05.874Z,99125.53
2022-11-06T07:09:13.572Z,99134.28
2022-11-06T07:14:18.524Z,99133.97
2022-11-06T07:19:25.286Z,99133.19
2022-11-06T07:24:33.566Z,99128.13
2022-11-06T07:29:38.508Z,99132.78
2022-11-06T07:34:44.275Z,99128.81
2022-11-06T07:39:52.396Z,99135.06
2022-11-06T07:44:57.523Z,99129.22
2022-11-06T07:50:02.743Z,99130.34
2022-11-06T07:55:11.796Z,99122.56
2022-11-06T08:00:18.456Z,99124.78
2022-11-06T08:05:23.539Z,99121.16
2022-11-06T08:10:31.345Z,99128.69
2022-11-06T08:15:36.799Z,99126.63
2022-11-06T08:20:42.699Z,99110.06
2022-11-06T08:25:50.236Z,99107.47
2022-11-06T08:30:55.450Z,99103.22
2022-11-06T08:36:03.535Z,99107.22
2022-11-06T08:41:13.328Z,99092.16
2022-11-06T08:46:18.376Z,99092.81
2022-11-06T08:51:23.223Z,99083.00
2022-11-06T08:56:30.811Z,99085.91
2022-11-06T09:01:35.733Z,99087.09
2022-11-06T09:06:40.809Z,99078.13
2022-11-06T09:11:48.270Z,99076.56
2022-11-06T09:16:53.273Z,99076.38
2022-11-06T09:21:58.226Z,99055.81
2022-11-06T09:27:05.570Z,99052.16
2022-11-06T09:32:10.888Z,99049.69
2022-11-06T09:37:17.448Z,99050.00
2022-11-06T09:42:36.364Z,99037.00
2022-11-06T09:47:46.649Z,99034.59
2022-11-06T09:52:55.444Z,99042.31
2022-11-06T09:58:08.285Z,99037.00
2022-11-06T10:03:20.990Z,99030.56
2022-11-06T10:08:28.114Z,99022.50
2022-11-06T10:14:00.255Z,99015.28
2022-11-06T10:19:13.993Z,98999.31
2022-11-06T10:24:28.694Z,98989.09
2022-11-06T10:30:01.580Z,98979.16
2022-11-06T10:35:16.555Z,98971.44
2022-11-06T10:40:29.081Z,98972.69
2022-11-06T10:45:39.146Z,98961.38
2022-11-06T10:50:59.483Z,98954.91
2022-11-06T10:56:31.288Z,98953.97
2022-11-06T11:01:40.375Z,98943.50
2022-11-06T11:06:45.337Z,98932.16
2022-11-06T11:11:52.540Z,98940.19
2022-11-06T11:17:03.159Z,98922.88
2022-11-06T11:22:20.329Z,98906.50
2022-11-06T11:27:26.457Z,98902.44
2022-11-06T11:32:34.462Z,98896.06
2022-11-06T11:37:39.281Z,98891.66
2022-11-06T11:42:44.021Z,98881.81
2022-11-06T11:47:54.144Z,98869.81
2022-11-06T11:53:09.704Z,98860.44
2022-11-06T11:58:23.611Z,98852.56
2022-11-06T12:03:37.087Z,98846.38
2022-11-06T12:08:44.242Z,98840.91
2022-11-06T12:14:08.960Z,98839.44
2022-11-06T12:19:17.563Z,98823.56
2022-11-06T12:24:26.584Z,98826.81
2022-11-06T12:29:36.331Z,98814.56
2022-11-06T12:34:53.606Z,98811.72
2022-11-06T12:40:06.093Z,98803.16
2022-11-06T12:45:15.140Z,98787.63
2022-11-06T12:50:34.698Z,98782.97
2022-11-06T12:55:48.167Z,98775.00
2022-11-06T13:01:04.698Z,98774.56
2022-11-06T13:06:21.438Z,98775.66
2022-11-06T13:11:37.037Z,98770.81
2022-11-06T13:16:46.631Z,98773.69
2022-11-06T13:22:10.717Z,98768.25
2022-11-06T13:27:26.433Z,98772.56
2022-11-06T13:32:34.588Z,98770.84
2022-11-06T13:37:47.833Z,98761.66
2022-11-06T13:42:57.587Z,98746.72
2022-11-06T13:48:21.114Z,98739.47
2022-11-06T13:53:35.690Z,98743.25
2022-11-06T13:58:55.562Z,98749.38
2022-11-06T14:04:17.530Z,98746.38
2022-11-06T14:09:27.500Z,98746.56
2022-11-06T14:14:34.949Z,98733.78
2022-11-06T14:19:40.138Z,98739.81
2022-11-06T14:24:47.845Z,98730.28
2022-11-06T14:30:05.462Z,98713.50
2022-11-06T14:35:49.138Z,98723.03
2022-11-06T14:40:56.616Z,98713.78
2022-11-06T14:46:04.660Z,98713.19
2022-11-06T14:51:11.897Z,98715.66
2022-11-06T14:56:28.521Z,98711.69
2022-11-06T15:01:35.768Z,98702.72
2022-11-06T15:06:47.219Z,98706.53
2022-11-06T15:12:02.640Z,98700.72
2022-11-06T15:17:13.592Z,98691.09
2022-11-06T15:22:23.878Z,98673.75
2022-11-06T15:27:40.428Z,98669.09
2022-11-06T15:32:50.026Z,98668.25
2022-11-06T15:37:58.549Z,98671.94
2022-11-06T15:43:11.767Z,98668.72
2022-11-06T15:48:23.374Z,98671.50
2022-11-06T15:53:36.943Z,98665.44
2022-11-06T15:58:47.422Z,98659.88
2022-11-06T16:03:55.409Z,98667.41
2022-11-06T16:09:01.083Z,98678.72
2022-11-06T16:14:13.231Z,98670.94
2022-11-06T16:19:28.247Z,98670.19
2022-11-06T16:24:42.807Z,98654.94
2022-11-06T16:29:55.255Z,98641.09
2022-11-06T16:35:00.683Z,98634.66
2022-11-06T16:40:10.139Z,98626.53
2022-11-06T16:45:24.277Z,98632.34
2022-11-06T16:50:53.503Z,98624.84
2022-11-06T16:56:01.831Z,98616.84
2022-11-06T17:01:11.816Z,98615.97
2022-11-06T17:11:48.633Z,98601.00
2022-11-06T17:17:01.665Z,98599.25
2022-11-06T17:22:12.783Z,98618.59
2022-11-06T17:27:18.218Z,98601.06
2022-11-06T17:32:28.591Z,98600.75
2022-11-06T17:37:35.967Z,98601.94
2022-11-06T17:42:42.390Z,98602.06
2022-11-06T17:47:52.302Z,98606.63
2022-11-06T17:52:58.530Z,98592.97
2022-11-06T17:58:13.783Z,98609.28
2022-11-06T18:03:26.244Z,98615.22
2022-11-06T18:08:34.075Z,98604.47
2022-11-06T18:13:40.376Z,98608.38
2022-11-06T18:18:49.404Z,98595.94
2022-11-06T18:24:02.671Z,98589.97
2022-11-06T18:29:09.957Z,98598.94
2022-11-06T18:34:22.997Z,98596.78
2022-11-06T18:39:28.664Z,98590.31
2022-11-06T18:44:45.422Z,98580.31
2022-11-06T18:49:54.972Z,98563.00
2022-11-06T18:55:05.725Z,98566.09
2022-11-06T19:00:19.534Z,98563.88
2022-11-06T19:05:32.312Z,98551.97
2022-11-06T19:10:48.864Z,98548.34
2022-11-06T19:15:55.685Z,98538.91
2022-11-06T19:21:12.897Z,98552.63
2022-11-06T19:26:36.345Z,98552.56
2022-11-06T19:31:42.897Z,98555.94
2022-11-06T19:36:51.649Z,98555.94
2022-11-06T19:41:59.680Z,98573.16
2022-11-06T19:47:05.894Z,98563.88
2022-11-06T19:52:42.942Z,98556.06
2022-11-06T19:57:42.563Z,98546.63
2022-11-06T20:02:52.076Z,98548.03
2022-11-06T20:08:01.686Z,98538.81
2022-11-06T20:13:10.649Z,98535.03
2022-11-06T20:18:20.040Z,98531.59
2022-11-06T20:23:33.308Z,98532.06
2022-11-06T20:28:44.136Z,98536.63
2022-11-06T20:33:54.905Z,98529.72
2022-11-06T20:39:15.661Z,98531.69
2022-11-06T20:44:21.833Z,98525.31
2022-11-06T20:49:31.061Z,98518.66
2022-11-06T20:54:45.352Z,98525.34
2022-11-06T20:59:53.297Z,98518.84
2022-11-06T21:05:01.465Z,98510.09
2022-11-06T21:10:13.180Z,98515.00
2022-11-06T21:15:20.262Z,98513.28
2022-11-06T21:20:27.507Z,98504.28
2022-11-06T21:25:40.007Z,98498.94
2022-11-06T21:30:49.201Z,98512.59
2022-11-06T21:35:54.969Z,98500.47
2022-11-06T21:41:03.815Z,98498.31
2022-11-06T21:46:12.864Z,98484.00
2022-11-06T21:51:20.406Z,98482.66
2022-11-06T21:56:30.599Z,98470.41
2022-11-06T22:01:35.855Z,98478.63
2022-11-06T22:06:43.755Z,98465.69
2022-11-06T22:11:53.755Z,98461.88
2022-11-06T22:16:58.820Z,98458.13
2022-11-06T22:22:04.942Z,98436.16
2022-11-06T22:27:13.913Z,98442.94
2022-11-06T22:32:20.140Z,98450.28
2022-11-06T22:37:25.208Z,98428.81
2022-11-06T22:42:34.157Z,98419.78
2022-11-06T22:47:39.459Z,98399.97
2022-11-06T22:52:45.102Z,98382.31
2022-11-06T22:57:52.536Z,98395.22
2022-11-06T23:02:57.350Z,98418.56
2022-11-06T23:08:02.252Z,98409.56
2022-11-06T23:13:09.911Z,98422.66
2022-11-06T23:18:15.034Z,98431.97
2022-11-06T23:23:22.334Z,98434.31
2022-11-06T23:28:31.447Z,98445.47
2022-11-06T23:33:37.911Z,98444.91
2022-11-06T23:38:43.295Z,98452.84
2022-11-06T23:43:55.152Z,98465.63
2022-11-06T23:49:00.103Z,98478.38
2022-11-06T23:54:05.127Z,98483.22
2022-11-06T23:59:12.848Z,98485.31
